createdAt,value
2022-09-10T00:01:31.987Z,101096.63
2022-09-10T00:04:01.648Z,101093.31
2022-09-10T00:06:33.274Z,101104.97
2022-09-10T00:09:02.637Z,101106.38
2022-09-10T00:11:32.296Z,101108.19
2022-09-10T00:14:02.515Z,101107.75
2022-09-10T00:16:31.488Z,101107.75
2022-09-10T00:19:01.221Z,101105.91
2022-09-10T00:21:31.263Z,101112.06
2022-09-10T00:24:00.264Z,101116.75
2022-09-10T00:26:30.858Z,101116.50
2022-09-10T00:29:00.245Z,101119.38
2022-09-10T00:31:30.146Z,101116.88
2022-09-10T00:34:00.408Z,101114.44
2022-09-10T00:36:32.911Z,101116.44
2022-09-10T00:39:03.695Z,101108.47
2022-09-10T00:41:32.135Z,101115.59
2022-09-10T00:44:03.994Z,101118.44
2022-09-10T00:46:43.926Z,101113.50
2022-09-10T00:49:18.122Z,101117.38
2022-09-10T00:51:49.318Z,101103.44
2022-09-10T00:54:20.541Z,101099.16
2022-09-10T00:56:50.117Z,101094.25
2022-09-10T00:59:22.081Z,101094.41
2022-09-10T01:01:50.722Z,101097.47
2022-09-10T01:04:18.936Z,101096.66
2022-09-10T01:06:52.103Z,101090.69
2022-09-10T01:09:21.485Z,101092.53
2022-09-10T01:12:11.140Z,101088.69
2022-09-10T01:15:05.390Z,101096.00
2022-09-10T01:17:46.356Z,101085.59
2022-09-10T01:20:34.440Z,101085.75
2022-09-10T01:23:28.380Z,101087.44
2022-09-10T01:26:09.288Z,101086.78
2022-09-10T01:28:46.676Z,101088.00
2022-09-10T01:31:23.818Z,101090.00
2022-09-10T01:33:59.088Z,101098.97
2022-09-10T01:36:33.614Z,101104.50
2022-09-10T01:39:03.577Z,101104.66
2022-09-10T01:41:32.320Z,101109.81
2022-09-10T01:44:10.067Z,101105.47
2022-09-10T01:46:46.613Z,101106.50
2022-09-10T01:49:27.965Z,101098.72
2022-09-10T01:52:12.293Z,101114.03
2022-09-10T01:54:56.103Z,101113.59
2022-09-10T01:57:33.555Z,101116.25
2022-09-10T02:00:10.045Z,101118.09
2022-09-10T02:02:43.153Z,101111.31
2022-09-10T02:05:13.069Z,101110.47
2022-09-10T02:07:41.311Z,101103.13
2022-09-10T02:10:10.588Z,101113.59
2022-09-10T02:12:40.208Z,101117.44
2022-09-10T02:15:12.749Z,101108.66
2022-09-10T02:17:42.137Z,101119.63
2022-09-10T02:20:13.804Z,101110.03
2022-09-10T02:22:49.193Z,101113.69
2022-09-10T02:25:17.556Z,101110.03
2022-09-10T02:27:46.069Z,101108.41
2022-09-10T02:30:17.028Z,101106.75
2022-09-10T02:32:45.118Z,101110.44
2022-09-10T02:35:13.712Z,101108.13
2022-09-10T02:37:43.160Z,101104.84
2022-09-10T02:40:12.252Z,101113.81
2022-09-10T02:42:46.680Z,101112.53
2022-09-10T02:45:16.459Z,101115.38
2022-09-10T02:47:44.709Z,101112.13
2022-09-10T02:50:12.924Z,101110.91
2022-09-10T02:52:41.117Z,101108.91
2022-09-10T02:55:09.778Z,101112.38
2022-09-10T02:57:38.317Z,101114.00
2022-09-10T03:00:07.895Z,101114.22
2022-09-10T03:02:38.085Z,101109.25
2022-09-10T03:05:07.336Z,101111.28
2022-09-10T03:07:35.620Z,101114.31
2022-09-10T03:10:03.711Z,101110.03
2022-09-10T03:12:31.972Z,101119.34
2022-09-10T03:15:00.420Z,101114.41
2022-09-10T03:17:28.930Z,101110.31
2022-09-10T03:19:58.522Z,101115.63
2022-09-10T03:22:26.691Z,101111.50
2022-09-10T03:24:55.253Z,101105.38
2022-09-10T03:27:23.381Z,101102.91
2022-09-10T03:29:51.453Z,101100.81
2022-09-10T03:32:19.638Z,101097.97
2022-09-10T03:34:49.441Z,101094.50
2022-09-10T03:37:19.064Z,101095.31
2022-09-10T03:39:47.200Z,101083.91
2022-09-10T03:42:15.782Z,101090.84
2022-09-10T03:44:43.937Z,101090.38
2022-09-10T03:47:13.171Z,101093.84
2022-09-10T03:49:41.231Z,101088.53
2022-09-10T03:52:12.722Z,101093.03
2022-09-10T03:54:42.151Z,101097.34
2022-09-10T03:57:10.753Z,101094.06
2022-09-10T03:59:41.345Z,101094.88
2022-09-10T04:02:10.367Z,101090.56
2022-09-10T04:04:38.898Z,101095.25
2022-09-10T04:07:07.241Z,101098.06
2022-09-10T04:09:35.368Z,101091.31
2022-09-10T04:12:05.618Z,101096.63
2022-09-10T04:14:34.573Z,101088.84
2022-09-10T04:17:03.027Z,101085.56
2022-09-10T04:19:31.158Z,101086.75
2022-09-10T04:21:59.337Z,101092.59
2022-09-10T04:24:27.653Z,101096.47
2022-09-10T04:26:56.863Z,101098.00
2022-09-10T04:29:26.710Z,101105.13
2022-09-10T04:31:55.355Z,101108.75
2022-09-10T04:34:23.659Z,101108.97
2022-09-10T04:36:53.743Z,101109.97
2022-09-10T04:39:21.948Z,101117.47
2022-09-10T04:41:50.131Z,101121.41
2022-09-10T04:44:20.282Z,101125.69
2022-09-10T04:46:49.802Z,101131.38
2022-09-10T04:49:18.063Z,101124.03
2022-09-10T04:51:46.175Z,101135.00
2022-09-10T04:54:15.304Z,101130.91
2022-09-10T04:56:44.777Z,101138.19
2022-09-10T04:59:13.023Z,101140.69
2022-09-10T05:01:41.141Z,101146.00
2022-09-10T05:04:10.723Z,101143.50
2022-09-10T05:06:38.871Z,101144.31
2022-09-10T05:09:07.551Z,101136.56
2022-09-10T05:11:36.862Z,101139.22
2022-09-10T05:14:05.112Z,101133.91
2022-09-10T05:16:33.674Z,101149.19
2022-09-10T05:19:02.040Z,101150.16
2022-09-10T05:21:32.277Z,101153.22
2022-09-10T05:24:00.901Z,101153.00
2022-09-10T05:26:29.041Z,101155.19
2022-09-10T05:28:59.897Z,101149.91
2022-09-10T05:31:28.917Z,101152.53
2022-09-10T05:33:57.091Z,101150.09
2022-09-10T05:36:25.389Z,101161.50
2022-09-10T05:38:55.462Z,101157.84
2022-09-10T05:41:23.916Z,101157.22
2022-09-10T05:43:52.183Z,101159.22
2022-09-10T05:46:20.361Z,101164.34
2022-09-10T05:48:49.161Z,101168.63
2022-09-10T05:51:18.551Z,101164.50
2022-09-10T05:53:46.836Z,101163.34
2022-09-10T05:56:16.781Z,101172.78
2022-09-10T05:58:46.110Z,101167.00
2022-09-10T06:01:14.302Z,101162.88
2022-09-10T06:03:42.531Z,101169.81
2022-09-10T06:06:11.199Z,101182.91
2022-09-10T06:08:40.144Z,101192.03
2022-09-10T06:11:08.745Z,101191.00
2022-09-10T06:13:42.316Z,101188.22
2022-09-10T06:16:11.890Z,101190.66
2022-09-10T06:18:40.304Z,101180.06
2022-09-10T06:21:12.251Z,101181.69
2022-09-10T06:23:40.703Z,101188.69
2022-09-10T06:26:11.362Z,101185.84
2022-09-10T06:28:41.657Z,101186.66
2022-09-10T06:31:12.077Z,101197.72
2022-09-10T06:33:40.173Z,101199.38
2022-09-10T06:36:08.314Z,101197.72
2022-09-10T06:38:36.888Z,101197.53
2022-09-10T06:41:09.052Z,101194.53
2022-09-10T06:43:37.978Z,101199.44
2022-09-10T06:46:40.858Z,101197.66
2022-09-10T06:49:04.350Z,101191.34
2022-09-10T06:51:33.783Z,101195.81
2022-09-10T06:54:02.945Z,101191.34
2022-09-10T06:56:31.351Z,101189.31
2022-09-10T06:59:02.384Z,101195.91
2022-09-10T07:01:32.408Z,101198.41
2022-09-10T07:04:02.121Z,101205.81
2022-09-10T07:06:35.337Z,101206.28
2022-09-10T07:09:04.411Z,101201.34
2022-09-10T07:11:33.345Z,101208.75
2022-09-10T07:14:02.298Z,101212.97
2022-09-10T07:16:31.925Z,101210.03
2022-09-10T07:19:01.508Z,101212.13
2022-09-10T07:21:30.391Z,101209.28
2022-09-10T07:24:01.407Z,101218.88
2022-09-10T07:26:30.384Z,101208.06
2022-09-10T07:28:59.719Z,101218.69
2022-09-10T07:31:29.946Z,101218.69
2022-09-10T07:33:59.682Z,101220.78
2022-09-10T07:36:28.887Z,101225.94
2022-09-10T07:39:01.757Z,101219.41
2022-09-10T07:41:31.061Z,101224.16
2022-09-10T07:44:00.293Z,101224.63
2022-09-10T07:46:28.553Z,101221.59
2022-09-10T07:48:58.530Z,101225.97
2022-09-10T07:51:29.931Z,101223.56
2022-09-10T07:54:00.389Z,101217.53
2022-09-10T07:56:32.524Z,101215.56
2022-09-10T07:59:02.894Z,101219.31
2022-09-10T08:01:31.844Z,101219.00
2022-09-10T08:04:00.526Z,101225.47
2022-09-10T08:06:30.792Z,101219.22
2022-09-10T08:09:00.105Z,101223.41
2022-09-10T08:11:28.364Z,101227.31
2022-09-10T08:13:57.011Z,101228.19
2022-09-10T08:16:26.997Z,101227.63
2022-09-10T08:18:57.055Z,101226.22
2022-09-10T08:21:26.144Z,101225.66
2022-09-10T08:23:56.900Z,101229.78
2022-09-10T08:26:27.584Z,101224.69
2022-09-10T08:28:58.001Z,101226.94
2022-09-10T08:31:26.790Z,101235.16
2022-09-10T08:33:57.025Z,101234.78
2022-09-10T08:36:25.925Z,101231.94
2022-09-10T08:39:01.413Z,101236.50
2022-09-10T08:41:42.808Z,101250.03
2022-09-10T08:44:17.726Z,101250.25
2022-09-10T08:46:51.117Z,101253.78
2022-09-10T08:49:29.151Z,101255.03
2022-09-10T08:52:01.185Z,101253.47
2022-09-10T08:54:37.536Z,101257.38
2022-09-10T08:57:13.474Z,101259.06
2022-09-10T08:59:47.320Z,101269.72
2022-09-10T09:02:44.688Z,101281.31
2022-09-10T09:05:16.090Z,101284.94
2022-09-10T09:07:44.540Z,101293.75
2022-09-10T09:10:28.708Z,101312.38
2022-09-10T09:13:28.242Z,101306.50
2022-09-10T09:16:08.173Z,101319.03
2022-09-10T09:18:48.163Z,101325.22
2022-09-10T09:21:19.401Z,101320.13
2022-09-10T09:24:13.695Z,101321.19
2022-09-10T09:26:47.247Z,101319.22
2022-09-10T09:29:20.612Z,101314.09
2022-09-10T09:31:51.259Z,101327.22
2022-09-10T09:34:24.148Z,101328.84
2022-09-10T09:36:55.615Z,101343.44
2022-09-10T09:39:26.580Z,101343.03
2022-09-10T09:42:05.824Z,101349.81
2022-09-10T09:44:40.745Z,101354.53
2022-09-10T09:47:09.968Z,101358.28
2022-09-10T09:49:38.391Z,101363.03
2022-09-10T09:52:18.590Z,101360.97
2022-09-10T09:57:43.158Z,101370.28
2022-09-10T10:00:36.437Z,101372.16
2022-09-10T10:03:15.129Z,101372.97
2022-09-10T10:05:43.976Z,101368.06
2022-09-10T10:08:31.416Z,101376.06
2022-09-10T10:11:00.300Z,101376.38
2022-09-10T10:13:40.181Z,101381.09
2022-09-10T10:16:18.861Z,101389.09
2022-09-10T10:18:47.682Z,101395.22
2022-09-10T10:21:22.430Z,101397.25
2022-09-10T10:23:50.976Z,101408.53
2022-09-10T10:26:27.729Z,101416.16
2022-09-10T10:29:00.725Z,101415.97
2022-09-10T10:31:38.148Z,101407.38
2022-09-10T10:34:24.551Z,101423.38
2022-09-10T10:37:04.724Z,101416.00
2022-09-10T10:39:51.710Z,101416.59
2022-09-10T10:42:29.164Z,101418.66
2022-09-10T10:45:09.072Z,101416.53
2022-09-10T10:47:48.582Z,101419.63
2022-09-10T10:50:31.575Z,101422.47
2022-09-10T10:53:22.800Z,101421.47
2022-09-10T10:55:59.718Z,101419.03
2022-09-10T10:59:05.313Z,101421.94
2022-09-10T11:01:41.666Z,101415.22
2022-09-10T11:04:25.253Z,101408.28
2022-09-10T11:07:00.715Z,101401.53
2022-09-10T11:09:33.143Z,101402.38
2022-09-10T11:12:06.756Z,101402.63
2022-09-10T11:14:41.618Z,101403.84
2022-09-10T11:17:17.121Z,101399.53
2022-09-10T11:20:00.592Z,101411.25
2022-09-10T11:22:44.229Z,101408.75
2022-09-10T11:25:21.098Z,101426.84
2022-09-10T11:27:53.283Z,101447.78
2022-09-10T11:30:21.735Z,101444.72
2022-09-10T11:32:58.056Z,101453.13
2022-09-10T11:35:32.081Z,101449.19
2022-09-10T11:38:13.635Z,101443.75
2022-09-10T11:40:52.333Z,101444.13
2022-09-10T11:43:31.686Z,101453.28
2022-09-10T11:46:04.737Z,101461.03
2022-09-10T11:48:40.282Z,101474.16
2022-09-10T11:51:15.963Z,101472.50
2022-09-10T11:53:44.444Z,101476.09
2022-09-10T11:56:44.107Z,101482.84
2022-09-10T11:59:30.200Z,101485.50
2022-09-10T12:02:25.113Z,101499.47
2022-09-10T12:05:01.856Z,101504.09
2022-09-10T12:07:45.896Z,101521.53
2022-09-10T12:10:24.046Z,101521.84
2022-09-10T12:12:53.406Z,101520.81
2022-09-10T12:15:23.649Z,101520.81
2022-09-10T12:17:56.466Z,101535.31
2022-09-10T12:20:29.876Z,101529.31
2022-09-10T12:22:58.435Z,101536.25
2022-09-10T12:25:34.588Z,101536.03
2022-09-10T12:28:08.066Z,101535.34
2022-09-10T12:31:02.958Z,101540.28
2022-09-10T12:34:00.860Z,101541.25
2022-09-10T12:37:18.322Z,101546.00
2022-09-10T12:39:49.145Z,101553.69
2022-09-10T12:42:33.239Z,101568.03
2022-09-10T12:45:01.734Z,101570.91
2022-09-10T12:47:53.357Z,101578.38
2022-09-10T12:50:28.847Z,101584.22
2022-09-10T12:53:20.105Z,101588.78
2022-09-10T12:56:02.239Z,101588.00
2022-09-10T12:58:55.224Z,101597.91
2022-09-10T13:01:39.145Z,101595.88
2022-09-10T13:04:21.028Z,101591.28
2022-09-10T13:06:49.442Z,101589.97
2022-09-10T13:09:21.186Z,101593.72
2022-09-10T13:11:54.138Z,101590.75
2022-09-10T13:14:26.980Z,101600.41
2022-09-10T13:16:56.528Z,101593.00
2022-09-10T13:19:51.014Z,101593.66
2022-09-10T13:22:53.503Z,101594.06
2022-09-10T13:25:41.692Z,101601.47
2022-09-10T13:28:46.883Z,101609.03
2022-09-10T13:31:22.367Z,101605.72
2022-09-10T13:34:21.097Z,101601.41
2022-09-10T13:37:06.038Z,101603.59
2022-09-10T13:40:17.325Z,101602.56
2022-09-10T13:43:01.876Z,101602.44
2022-09-10T13:45:36.330Z,101614.97
2022-09-10T13:48:15.016Z,101614.78
2022-09-10T13:50:54.134Z,101611.13
2022-09-10T13:53:24.900Z,101609.28
2022-09-10T13:55:59.292Z,101614.22
2022-09-10T13:58:32.749Z,101610.47
2022-09-10T14:01:03.438Z,101613.41
2022-09-10T14:03:34.696Z,101620.16
2022-09-10T14:06:05.285Z,101622.66
2022-09-10T14:08:38.557Z,101616.25
2022-09-10T14:11:09.875Z,101621.84
2022-09-10T14:13:43.352Z,101615.84
2022-09-10T14:16:17.599Z,101618.34
2022-09-10T14:18:51.053Z,101626.03
2022-09-10T14:21:26.923Z,101626.88
2022-09-10T14:23:56.656Z,101624.25
2022-09-10T14:26:27.362Z,101631.84
2022-09-10T14:28:58.987Z,101622.78
2022-09-10T14:31:34.695Z,101621.19
2022-09-10T14:34:32.367Z,101625.31
2022-09-10T14:37:01.796Z,101627.97
2022-09-10T14:39:30.372Z,101632.53
2022-09-10T14:42:24.206Z,101629.03
2022-09-10T14:44:52.743Z,101629.84
2022-09-10T14:47:32.629Z,101635.25
2022-09-10T14:50:28.941Z,101634.00
2022-09-10T14:52:57.082Z,101627.03
2022-09-10T14:55:26.985Z,101631.56
2022-09-10T14:57:56.427Z,101634.03
2022-09-10T15:00:26.047Z,101625.00
2022-09-10T15:02:57.495Z,101632.38
2022-09-10T15:05:27.209Z,101619.22
2022-09-10T15:07:55.376Z,101609.34
2022-09-10T15:10:23.606Z,101624.13
2022-09-10T15:12:53.255Z,101620.84
2022-09-10T15:15:21.702Z,101623.13
2022-09-10T15:17:49.844Z,101618.56
2022-09-10T15:20:18.265Z,101616.50
2022-09-10T15:22:47.744Z,101612.38
2022-09-10T15:25:29.836Z,101615.66
2022-09-10T15:27:58.145Z,101617.47
2022-09-10T15:30:26.497Z,101609.25
2022-09-10T15:32:54.880Z,101607.81
2022-09-10T15:35:23.389Z,101605.28
2022-09-10T15:37:53.025Z,101594.41
2022-09-10T15:40:21.111Z,101596.47
2022-09-10T15:42:49.952Z,101590.22
2022-09-10T15:45:18.009Z,101580.78
2022-09-10T15:47:46.056Z,101584.22
2022-09-10T15:50:15.973Z,101573.97
2022-09-10T15:52:45.036Z,101569.84
2022-09-10T15:55:14.828Z,101568.00
2022-09-10T15:57:42.892Z,101565.31
2022-09-10T16:00:13.962Z,101551.97
2022-09-10T16:02:42.296Z,101559.56
2022-09-10T16:05:11.024Z,101563.03
2022-09-10T16:07:39.166Z,101557.47
2022-09-10T16:10:08.220Z,101549.03
2022-09-10T16:12:37.743Z,101548.59
2022-09-10T16:15:06.887Z,101546.34
2022-09-10T16:17:35.315Z,101545.31
2022-09-10T16:20:04.278Z,101534.22
2022-09-10T16:22:32.674Z,101540.34
2022-09-10T16:25:00.747Z,101535.63
2022-09-10T16:27:28.835Z,101544.81
2022-09-10T16:29:58.720Z,101536.63
2022-09-10T16:32:26.790Z,101536.41
2022-09-10T16:34:55.597Z,101537.22
2022-09-10T16:37:26.212Z,101533.28
2022-09-10T16:39:54.890Z,101535.31
2022-09-10T16:42:23.164Z,101541.06
2022-09-10T16:44:51.252Z,101531.16
2022-09-10T16:47:20.809Z,101529.50
2022-09-10T16:49:48.883Z,101530.31
2022-09-10T16:52:17.024Z,101529.84
2022-09-10T16:54:46.164Z,101520.41
2022-09-10T16:57:14.375Z,101521.00
2022-09-10T16:59:42.567Z,101520.19
2022-09-10T17:02:12.304Z,101517.44
2022-09-10T17:04:41.864Z,101519.69
2022-09-10T17:07:10.158Z,101521.59
2022-09-10T17:09:38.207Z,101514.19
2022-09-10T17:12:08.775Z,101520.94
2022-09-10T17:14:36.829Z,101516.19
2022-09-10T17:17:05.491Z,101507.38
2022-09-10T17:19:33.685Z,101499.38
2022-09-10T17:22:03.106Z,101507.59
2022-09-10T17:24:31.229Z,101499.59
2022-09-10T17:27:00.532Z,101507.59
2022-09-10T17:29:28.778Z,101499.78
2022-09-10T17:31:57.596Z,101500.16
2022-09-10T17:34:26.628Z,101501.38
2022-09-10T17:36:55.196Z,101507.50
2022-09-10T17:39:28.389Z,101507.94
2022-09-10T17:41:56.964Z,101503.34
2022-09-10T17:44:25.795Z,101514.41
2022-09-10T17:46:55.258Z,101514.78
2022-09-10T17:49:23.985Z,101516.84
2022-09-10T17:51:52.336Z,101510.28
2022-09-10T17:54:20.663Z,101509.47
2022-09-10T17:56:50.446Z,101502.88
2022-09-10T17:59:18.728Z,101504.53
2022-09-10T18:01:47.843Z,101507.56
2022-09-10T18:04:16.467Z,101508.59
2022-09-10T18:06:48.940Z,101511.25
2022-09-10T18:09:19.757Z,101505.50
2022-09-10T18:11:49.243Z,101512.66
2022-09-10T18:14:19.172Z,101502.00
2022-09-10T18:16:47.372Z,101505.50
2022-09-10T18:19:18.122Z,101495.66
2022-09-10T18:21:47.762Z,101506.50
2022-09-10T18:24:18.153Z,101487.88
2022-09-10T18:26:48.297Z,101494.59
2022-09-10T18:29:20.070Z,101491.47
2022-09-10T18:31:50.999Z,101487.56
2022-09-10T18:34:23.608Z,101484.88
2022-09-10T18:36:55.050Z,101482.34
2022-09-10T18:39:25.043Z,101478.47
2022-09-10T18:41:53.879Z,101478.81
2022-09-10T18:44:25.536Z,101473.72
2022-09-10T18:46:54.335Z,101470.41
2022-09-10T18:49:24.571Z,101471.78
2022-09-10T18:51:54.460Z,101461.72
2022-09-10T18:54:23.742Z,101459.63
2022-09-10T18:56:52.744Z,101469.00
2022-09-10T18:59:24.554Z,101466.06
2022-09-10T19:01:56.103Z,101460.94
2022-09-10T19:04:26.161Z,101458.03
2022-09-10T19:06:55.268Z,101453.06
2022-09-10T19:09:26.065Z,101451.44
2022-09-10T19:11:55.614Z,101449.78
2022-09-10T19:14:26.934Z,101452.66
2022-09-10T19:16:56.489Z,101445.84
2022-09-10T19:19:26.556Z,101449.34
2022-09-10T19:21:57.114Z,101461.19
2022-09-10T19:24:44.041Z,101459.91
2022-09-10T19:27:14.033Z,101464.00
2022-09-10T19:29:44.397Z,101462.38
2022-09-10T19:32:14.725Z,101462.38
2022-09-10T19:34:42.837Z,101460.09
2022-09-10T19:37:11.321Z,101454.97
2022-09-10T19:39:39.499Z,101454.69
2022-09-10T19:42:08.108Z,101445.91
2022-09-10T19:44:36.155Z,101447.09
2022-09-10T19:47:05.933Z,101441.78
2022-09-10T19:49:34.493Z,101439.13
2022-09-10T19:52:04.361Z,101435.22
2022-09-10T19:54:32.529Z,101431.53
2022-09-10T19:57:00.698Z,101432.56
2022-09-10T19:59:28.819Z,101423.72
2022-09-10T20:01:57.000Z,101419.25
2022-09-10T20:04:27.737Z,101414.31
2022-09-10T20:06:55.787Z,101417.97
2022-09-10T20:09:24.357Z,101415.69
2022-09-10T20:11:52.558Z,101409.75
2022-09-10T20:14:21.178Z,101412.56
2022-09-10T20:16:49.362Z,101409.75
2022-09-10T20:19:21.913Z,101405.63
2022-09-10T20:21:51.871Z,101400.50
2022-09-10T20:24:20.338Z,101406.81
2022-09-10T20:26:49.153Z,101387.75
2022-09-10T20:29:19.372Z,101380.59
2022-09-10T20:31:48.610Z,101377.50
2022-09-10T20:34:19.592Z,101368.91
2022-09-10T20:36:48.280Z,101364.56
2022-09-10T20:39:19.960Z,101358.25
2022-09-10T20:41:48.361Z,101363.13
2022-09-10T20:44:18.137Z,101353.53
2022-09-10T20:46:46.633Z,101350.19
2022-09-10T20:49:16.514Z,101350.19
2022-09-10T20:51:45.312Z,101344.72
2022-09-10T20:54:15.364Z,101346.72
2022-09-10T20:56:45.640Z,101354.06
2022-09-10T20:59:15.687Z,101355.91
2022-09-10T21:01:46.370Z,101352.59
2022-09-10T21:04:14.949Z,101354.44
2022-09-10T21:06:43.120Z,101353.63
2022-09-10T21:09:11.701Z,101346.66
2022-09-10T21:11:40.066Z,101346.00
2022-09-10T21:14:11.165Z,101345.19
2022-09-10T21:16:41.366Z,101339.41
2022-09-10T21:19:11.806Z,101339.41
2022-09-10T21:21:40.786Z,101333.50
2022-09-10T21:24:11.302Z,101338.19
2022-09-10T21:26:43.485Z,101326.69
2022-09-10T21:29:15.184Z,101328.72
2022-09-10T21:31:43.391Z,101328.94
2022-09-10T21:34:11.747Z,101331.59
2022-09-10T21:36:41.274Z,101329.09
2022-09-10T21:39:13.854Z,101327.47
2022-09-10T21:41:44.183Z,101317.66
2022-09-10T21:44:16.249Z,101313.97
2022-09-10T21:46:46.053Z,101317.28
2022-09-10T21:49:15.448Z,101323.63
2022-09-10T21:51:43.616Z,101316.00
2022-09-10T21:54:15.851Z,101316.84
2022-09-10T21:56:44.246Z,101317.03
2022-09-10T21:59:15.638Z,101317.03
2022-09-10T22:01:45.801Z,101309.06
2022-09-10T22:04:18.862Z,101310.06
2022-09-10T22:06:50.231Z,101314.19
2022-09-10T22:09:19.988Z,101320.50
2022-09-10T22:11:50.379Z,101318.66
2022-09-10T22:14:21.504Z,101318.66
2022-09-10T22:16:49.818Z,101318.47
2022-09-10T22:19:19.710Z,101312.53
2022-09-10T22:21:48.279Z,101307.41
2022-09-10T22:24:18.532Z,101301.25
2022-09-10T22:26:48.036Z,101300.44
2022-09-10T22:29:18.346Z,101298.44
2022-09-10T22:31:48.070Z,101293.13
2022-09-10T22:34:17.522Z,101286.16
2022-09-10T22:36:47.548Z,101281.66
2022-09-10T22:39:18.066Z,101281.66
2022-09-10T22:41:47.110Z,101277.53
2022-09-10T22:44:17.835Z,101273.88
2022-09-10T22:46:47.758Z,101273.03
2022-09-10T22:49:17.140Z,101276.72
2022-09-10T22:51:45.320Z,101274.25
2022-09-10T22:54:13.884Z,101273.25
2022-09-10T22:56:42.518Z,101277.94
2022-09-10T22:59:13.781Z,101273.59
2022-09-10T23:01:43.443Z,101270.34
2022-09-10T23:04:13.466Z,101275.81
2022-09-10T23:06:41.741Z,101269.47
2022-09-10T23:09:12.668Z,101283.41
2022-09-10T23:11:41.845Z,101265.84
2022-09-10T23:14:13.158Z,101271.16
2022-09-10T23:16:42.903Z,101265.56
2022-09-10T23:19:15.346Z,101261.41
2022-09-10T23:21:45.665Z,101260.81
2022-09-10T23:24:15.870Z,101260.16
2022-09-10T23:26:44.555Z,101267.28
2022-09-10T23:29:13.616Z,101269.13
2022-09-10T23:31:42.130Z,101271.16
2022-09-10T23:34:14.234Z,101262.38
2022-09-10T23:36:45.239Z,101270.50
2022-09-10T23:39:15.673Z,101265.41
2022-09-10T23:41:44.111Z,101269.25
2022-09-10T23:44:12.535Z,101263.31
2022-09-10T23:46:41.097Z,101258.00
2022-09-10T23:49:09.260Z,101258.00
2022-09-10T23:51:39.197Z,101248.19
2022-09-10T23:54:07.410Z,101247.38
2022-09-10T23:56:35.982Z,101256.53
2022-09-10T23:59:04.741Z,101254.25
